createdAt,value
2023-01-18T00:01:03.416Z,22.34
2023-01-18T00:03:33.566Z,22.35
2023-01-18T00:06:02.756Z,22.34
2023-01-18T00:08:31.945Z,22.34
2023-01-18T00:11:05.205Z,22.33
2023-01-18T00:13:33.842Z,22.32
2023-01-18T00:16:08.766Z,22.33
2023-01-18T00:18:37.429Z,22.34
2023-01-18T00:21:07.559Z,22.32
2023-01-18T00:23:36.187Z,22.34
2023-01-18T00:26:06.739Z,22.34
2023-01-18T00:28:35.699Z,22.33
2023-01-18T00:31:09.792Z,22.33
2023-01-18T00:33:38.508Z,22.33
2023-01-18T00:36:08.325Z,22.34
2023-01-18T00:38:36.904Z,22.33
2023-01-18T00:41:06.177Z,22.34
2023-01-18T00:43:39.886Z,22.33
2023-01-18T00:46:11.429Z,22.33
2023-01-18T00:48:41.048Z,22.33
2023-01-18T00:51:10.974Z,22.33
2023-01-18T00:53:39.580Z,22.33
2023-01-18T00:56:08.910Z,22.33
2023-01-18T00:58:38.016Z,22.32
2023-01-18T01:01:07.354Z,22.32
2023-01-18T01:03:51.494Z,22.33
2023-01-18T01:06:38.943Z,22.34
2023-01-18T01:09:07.571Z,22.33
2023-01-18T01:11:36.288Z,22.32
2023-01-18T01:14:22.466Z,22.33
2023-01-18T01:17:08.660Z,22.32
2023-01-18T01:19:55.930Z,22.33
2023-01-18T01:22:42.191Z,22.32
2023-01-18T01:25:28.162Z,22.33
2023-01-18T01:27:56.927Z,22.33
2023-01-18T01:30:25.521Z,22.33
2023-01-18T01:32:54.237Z,22.33
2023-01-18T01:35:24.292Z,22.35
2023-01-18T01:37:52.941Z,22.33
2023-01-18T01:40:21.559Z,22.34
2023-01-18T01:42:50.315Z,22.35
2023-01-18T01:45:20.019Z,22.33
2023-01-18T01:47:48.868Z,22.33
2023-01-18T01:50:21.560Z,22.33
2023-01-18T01:52:51.581Z,22.32
2023-01-18T01:55:23.631Z,22.32
2023-01-18T01:57:55.831Z,22.33
2023-01-18T02:00:25.261Z,22.34
2023-01-18T02:02:57.721Z,22.34
2023-01-18T02:05:26.885Z,22.33
2023-01-18T02:07:58.680Z,22.32
2023-01-18T02:10:27.291Z,22.33
2023-01-18T02:12:56.185Z,22.33
2023-01-18T02:15:29.198Z,22.33
2023-01-18T02:18:16.561Z,22.33
2023-01-18T02:21:19.261Z,22.35
2023-01-18T02:24:40.057Z,22.34
2023-01-18T02:27:10.273Z,22.33
2023-01-18T02:30:08.771Z,22.33
2023-01-18T02:32:57.198Z,22.33
2023-01-18T02:35:32.266Z,22.33
2023-01-18T02:38:06.781Z,22.34
2023-01-18T02:40:55.270Z,22.34
2023-01-18T02:43:41.192Z,22.33
2023-01-18T02:46:34.163Z,22.34
2023-01-18T02:49:05.295Z,22.34
2023-01-18T02:51:34.031Z,22.34
2023-01-18T02:54:02.964Z,22.34
2023-01-18T02:56:34.819Z,22.36
2023-01-18T02:59:06.658Z,22.34
2023-01-18T03:01:39.261Z,22.33
2023-01-18T03:04:11.040Z,22.34
2023-01-18T03:06:39.587Z,22.35
2023-01-18T03:09:08.319Z,22.33
2023-01-18T03:11:41.036Z,22.33
2023-01-18T03:14:16.824Z,22.35
2023-01-18T03:16:59.032Z,22.34
2023-01-18T03:19:54.329Z,22.35
2023-01-18T03:22:43.671Z,22.33
2023-01-18T03:25:13.250Z,22.34
2023-01-18T03:28:00.214Z,22.33
2023-01-18T03:30:47.907Z,22.34
2023-01-18T03:33:35.521Z,22.33
2023-01-18T03:36:04.800Z,22.31
2023-01-18T03:38:33.431Z,22.32
2023-01-18T03:41:02.085Z,22.32
2023-01-18T03:43:36.470Z,22.33
2023-01-18T03:46:05.894Z,22.32
2023-01-18T03:48:36.621Z,22.34
2023-01-18T03:51:11.873Z,22.31
2023-01-18T03:53:43.878Z,22.32
2023-01-18T03:56:15.462Z,22.32
2023-01-18T03:58:44.422Z,22.31
2023-01-18T04:01:13.170Z,22.31
2023-01-18T04:03:43.214Z,22.32
2023-01-18T04:06:11.985Z,22.31
2023-01-18T04:08:40.635Z,22.31
2023-01-18T04:11:09.208Z,22.31
2023-01-18T04:13:37.921Z,22.33
2023-01-18T04:16:07.114Z,22.31
2023-01-18T04:18:35.753Z,22.31
2023-01-18T04:21:06.284Z,22.32
2023-01-18T04:23:34.937Z,22.32
2023-01-18T04:26:03.462Z,22.32
2023-01-18T04:28:34.655Z,22.31
2023-01-18T04:31:03.271Z,22.31
2023-01-18T04:33:31.981Z,22.31
2023-01-18T04:36:00.543Z,22.30
2023-01-18T04:38:30.491Z,22.31
2023-01-18T04:41:04.156Z,22.30
2023-01-18T04:43:32.793Z,22.30
2023-01-18T04:46:01.442Z,22.30
2023-01-18T04:48:30.083Z,22.30
2023-01-18T04:50:58.597Z,22.31
2023-01-18T04:53:27.388Z,22.29
2023-01-18T04:55:58.179Z,22.31
2023-01-18T04:58:26.954Z,22.29
2023-01-18T05:00:55.590Z,22.30
2023-01-18T05:03:24.547Z,22.29
2023-01-18T05:05:54.636Z,22.29
2023-01-18T05:08:23.382Z,22.30
2023-01-18T05:10:52.003Z,22.29
2023-01-18T05:13:22.201Z,22.30
2023-01-18T05:15:50.817Z,22.29
2023-01-18T05:18:19.435Z,22.31
2023-01-18T05:20:48.682Z,22.31
2023-01-18T05:23:17.434Z,22.30
2023-01-18T05:25:46.067Z,22.29
2023-01-18T05:28:14.727Z,22.29
2023-01-18T05:30:44.927Z,22.30
2023-01-18T05:33:13.543Z,22.31
2023-01-18T05:35:42.262Z,22.30
2023-01-18T05:38:10.838Z,22.30
2023-01-18T05:40:39.533Z,22.30
2023-01-18T05:43:08.582Z,22.30
2023-01-18T05:45:37.238Z,22.30
2023-01-18T05:48:09.748Z,22.29
2023-01-18T05:50:40.371Z,22.30
2023-01-18T05:53:09.093Z,22.28
2023-01-18T05:55:37.874Z,22.30
2023-01-18T05:58:06.526Z,22.29
2023-01-18T06:00:35.382Z,22.29
2023-01-18T06:03:04.083Z,22.28
2023-01-18T06:05:34.181Z,22.29
2023-01-18T06:08:02.957Z,22.28
2023-01-18T06:10:31.648Z,22.28
2023-01-18T06:13:03.365Z,22.27
2023-01-18T06:15:32.093Z,22.25
2023-01-18T06:18:00.748Z,22.24
2023-01-18T06:20:30.712Z,22.22
2023-01-18T06:23:01.135Z,22.21
2023-01-18T06:25:29.915Z,22.21
2023-01-18T06:27:58.512Z,22.20
2023-01-18T06:30:27.289Z,22.25
2023-01-18T06:32:55.969Z,22.26
2023-01-18T06:35:24.804Z,22.28
2023-01-18T06:37:56.484Z,22.30
2023-01-18T06:40:26.458Z,22.32
2023-01-18T06:42:55.199Z,22.34
2023-01-18T06:45:25.559Z,22.31
2023-01-18T06:47:54.196Z,22.33
2023-01-18T06:50:23.016Z,22.36
2023-01-18T06:52:51.825Z,22.32
2023-01-18T06:55:21.331Z,22.32
2023-01-18T06:57:51.432Z,22.29
2023-01-18T07:00:21.348Z,22.32
2023-01-18T07:02:49.932Z,22.34
2023-01-18T07:05:18.966Z,22.40
2023-01-18T07:07:47.602Z,22.35
2023-01-18T07:10:16.971Z,22.35
2023-01-18T07:12:49.017Z,22.38
2023-01-18T07:15:22.983Z,22.40
2023-01-18T07:17:52.707Z,22.39
2023-01-18T07:20:21.625Z,22.39
2023-01-18T07:22:52.826Z,22.36
2023-01-18T07:25:22.795Z,22.33
2023-01-18T07:27:51.453Z,22.33
2023-01-18T07:30:21.842Z,22.34
2023-01-18T07:32:51.738Z,22.32
2023-01-18T07:35:22.261Z,22.35
2023-01-18T07:37:52.322Z,22.36
2023-01-18T07:40:21.934Z,22.33
2023-01-18T07:42:50.624Z,22.32
2023-01-18T07:45:21.402Z,22.31
2023-01-18T07:47:52.146Z,22.29
2023-01-18T07:50:22.037Z,22.31
2023-01-18T07:52:50.607Z,22.30
2023-01-18T07:55:21.258Z,22.29
2023-01-18T07:57:49.891Z,22.29
2023-01-18T08:00:21.717Z,22.30
2023-01-18T08:02:52.121Z,22.30
2023-01-18T08:05:26.389Z,22.30
2023-01-18T08:07:55.081Z,22.30
2023-01-18T08:10:26.605Z,22.29
2023-01-18T08:12:55.260Z,22.29
2023-01-18T08:15:25.132Z,22.32
2023-01-18T08:17:55.508Z,22.31
2023-01-18T08:20:24.330Z,22.32
2023-01-18T08:22:56.944Z,22.31
2023-01-18T08:25:29.667Z,22.31
2023-01-18T08:27:59.338Z,22.30
2023-01-18T08:30:30.363Z,22.30
2023-01-18T08:33:00.619Z,22.30
2023-01-18T08:35:30.697Z,22.32
2023-01-18T08:38:00.645Z,22.32
2023-01-18T08:40:29.863Z,22.31
2023-01-18T08:42:59.171Z,22.31
2023-01-18T08:45:29.429Z,22.30
2023-01-18T08:47:58.837Z,22.30
2023-01-18T08:50:27.791Z,22.30
2023-01-18T08:52:57.332Z,22.30
2023-01-18T08:55:25.987Z,22.28
2023-01-18T08:57:55.476Z,22.30
2023-01-18T09:00:26.918Z,22.29
2023-01-18T09:02:57.672Z,22.28
2023-01-18T09:05:27.238Z,22.29
2023-01-18T09:07:57.568Z,22.30
2023-01-18T09:10:26.211Z,22.30
2023-01-18T09:12:56.403Z,22.30
2023-01-18T09:15:27.089Z,22.27
2023-01-18T09:17:57.234Z,22.29
2023-01-18T09:20:26.066Z,22.30
2023-01-18T09:22:54.873Z,22.30
2023-01-18T09:25:23.456Z,22.30
2023-01-18T09:27:52.606Z,22.29
2023-01-18T09:30:21.387Z,22.28
2023-01-18T09:32:50.030Z,22.30
2023-01-18T09:35:20.291Z,22.28
2023-01-18T09:37:48.996Z,22.30
2023-01-18T09:40:19.301Z,22.29
2023-01-18T09:42:49.358Z,22.28
2023-01-18T09:45:29.535Z,22.28
2023-01-18T09:48:03.214Z,22.30
2023-01-18T09:50:34.310Z,22.30
2023-01-18T09:53:11.671Z,22.30
2023-01-18T09:55:49.463Z,22.29
2023-01-18T09:58:44.732Z,22.29
2023-01-18T10:01:16.240Z,22.28
2023-01-18T10:03:51.085Z,22.30
2023-01-18T10:06:24.957Z,22.33
2023-01-18T10:08:57.070Z,22.31
2023-01-18T10:11:35.313Z,22.30
2023-01-18T10:14:09.123Z,22.29
2023-01-18T10:16:38.817Z,22.29
2023-01-18T10:19:21.939Z,22.30
2023-01-18T10:21:57.931Z,22.28
2023-01-18T10:24:41.332Z,22.30
2023-01-18T10:27:33.953Z,22.28
2023-01-18T10:30:14.389Z,22.28
2023-01-18T10:32:44.313Z,22.28
2023-01-18T10:35:18.189Z,22.27
2023-01-18T10:37:49.095Z,22.28
2023-01-18T10:40:19.135Z,22.28
2023-01-18T10:42:48.886Z,22.27
2023-01-18T10:45:20.513Z,22.27
2023-01-18T10:47:49.412Z,22.27
2023-01-18T10:50:20.002Z,22.27
2023-01-18T10:52:50.201Z,22.27
2023-01-18T10:55:20.401Z,22.23
2023-01-18T10:57:52.066Z,22.26
2023-01-18T11:00:23.152Z,22.28
2023-01-18T11:02:52.807Z,22.27
2023-01-18T11:05:27.944Z,22.27
2023-01-18T11:08:14.214Z,22.27
2023-01-18T11:10:43.065Z,22.27
2023-01-18T11:13:28.665Z,22.27
2023-01-18T11:16:16.751Z,22.27
2023-01-18T11:19:07.295Z,22.28
2023-01-18T11:21:46.693Z,22.28
2023-01-18T11:24:18.511Z,22.26
2023-01-18T11:26:59.193Z,22.26
2023-01-18T11:29:30.490Z,22.26
2023-01-18T11:32:03.784Z,22.28
2023-01-18T11:34:34.047Z,22.28
2023-01-18T11:37:02.866Z,22.27
2023-01-18T11:39:34.522Z,22.27
2023-01-18T11:42:22.886Z,22.27
2023-01-18T11:45:00.387Z,22.30
2023-01-18T11:47:32.632Z,22.28
2023-01-18T11:50:16.962Z,22.27
2023-01-18T11:52:52.862Z,22.25
2023-01-18T11:55:31.571Z,22.27
2023-01-18T11:58:01.905Z,22.25
2023-01-18T12:00:38.239Z,22.24
2023-01-18T12:03:28.939Z,22.28
2023-01-18T12:06:00.651Z,22.26
2023-01-18T12:08:49.928Z,22.27
2023-01-18T12:11:34.890Z,22.26
2023-01-18T12:14:06.187Z,22.26
2023-01-18T12:16:51.879Z,22.27
2023-01-18T12:19:43.127Z,22.27
2023-01-18T12:22:41.309Z,22.26
2023-01-18T12:25:22.676Z,22.23
2023-01-18T12:27:58.972Z,22.26
2023-01-18T12:30:43.271Z,22.26
2023-01-18T12:33:42.324Z,22.26
2023-01-18T12:36:27.498Z,22.24
2023-01-18T12:38:57.628Z,22.26
2023-01-18T12:41:51.238Z,22.27
2023-01-18T12:44:52.438Z,22.25
2023-01-18T12:47:36.250Z,22.25
2023-01-18T12:50:14.429Z,22.27
2023-01-18T12:52:47.948Z,22.30
2023-01-18T12:55:21.408Z,22.29
2023-01-18T12:57:52.032Z,22.31
2023-01-18T13:00:26.142Z,22.24
2023-01-18T13:02:57.160Z,22.28
2023-01-18T13:05:35.175Z,22.29
2023-01-18T13:08:09.236Z,22.28
2023-01-18T13:10:38.108Z,22.27
2023-01-18T13:13:07.187Z,22.29
2023-01-18T13:15:43.204Z,22.28
2023-01-18T13:18:16.447Z,22.28
2023-01-18T13:21:04.333Z,22.28
2023-01-18T13:23:39.076Z,22.29
2023-01-18T13:26:18.944Z,22.28
2023-01-18T13:28:47.569Z,22.28
2023-01-18T13:31:17.569Z,22.28
2023-01-18T13:33:46.595Z,22.28
2023-01-18T13:36:17.419Z,22.28
2023-01-18T13:38:51.860Z,22.28
2023-01-18T13:41:24.830Z,22.27
2023-01-18T13:44:05.907Z,22.28
2023-01-18T13:46:39.380Z,22.29
2023-01-18T13:49:37.661Z,22.26
2023-01-18T13:52:31.577Z,22.27
2023-01-18T13:55:06.550Z,22.27
2023-01-18T13:57:36.035Z,22.27
2023-01-18T14:00:07.551Z,22.27
2023-01-18T14:02:42.557Z,22.27
2023-01-18T14:05:25.159Z,22.27
2023-01-18T14:07:57.043Z,22.29
2023-01-18T14:10:31.870Z,22.26
2023-01-18T14:13:01.627Z,22.27
2023-01-18T14:15:46.906Z,22.27
2023-01-18T14:18:23.635Z,22.27
2023-01-18T14:21:18.898Z,22.26
2023-01-18T14:24:18.373Z,22.26
2023-01-18T14:26:46.986Z,22.27
2023-01-18T14:29:19.241Z,22.26
2023-01-18T14:31:50.588Z,22.26
2023-01-18T14:34:36.986Z,22.24
2023-01-18T14:37:06.705Z,22.26
2023-01-18T14:39:35.550Z,22.26
2023-01-18T14:42:05.103Z,22.25
2023-01-18T14:44:57.016Z,22.27
2023-01-18T14:47:26.328Z,22.28
2023-01-18T14:49:56.725Z,22.26
2023-01-18T14:52:26.035Z,22.27
2023-01-18T14:54:55.933Z,22.27
2023-01-18T14:57:24.875Z,22.26
2023-01-18T14:59:54.933Z,22.26
2023-01-18T15:02:27.181Z,22.27
2023-01-18T15:05:12.468Z,22.25
2023-01-18T15:07:41.714Z,22.27
2023-01-18T15:10:11.768Z,22.29
2023-01-18T15:12:40.733Z,22.28
2023-01-18T15:15:14.303Z,22.25
2023-01-18T15:17:43.057Z,22.27
2023-01-18T15:20:15.904Z,22.26
2023-01-18T15:22:44.779Z,22.23
2023-01-18T15:25:21.696Z,22.24
2023-01-18T15:27:52.525Z,22.22
2023-01-18T15:30:23.800Z,22.30
2023-01-18T15:32:55.238Z,22.31
2023-01-18T15:35:26.568Z,22.32
2023-01-18T15:37:55.154Z,22.32
2023-01-18T15:40:27.127Z,22.31
2023-01-18T15:43:05.943Z,22.30
2023-01-18T15:45:35.705Z,22.30
2023-01-18T15:48:08.971Z,22.30
2023-01-18T15:50:45.336Z,22.30
2023-01-18T15:53:19.182Z,22.32
2023-01-18T15:55:50.298Z,22.32
2023-01-18T15:58:29.878Z,22.32
2023-01-18T16:01:00.401Z,22.39
2023-01-18T16:03:31.965Z,22.38
2023-01-18T16:06:13.802Z,22.36
2023-01-18T16:09:00.255Z,22.33
2023-01-18T16:11:32.162Z,22.27
2023-01-18T16:14:01.764Z,22.27
2023-01-18T16:16:30.650Z,22.26
2023-01-18T16:19:06.834Z,22.24
2023-01-18T16:21:42.343Z,22.27
2023-01-18T16:24:19.767Z,22.28
2023-01-18T16:26:48.590Z,22.31
2023-01-18T16:29:17.163Z,22.31
2023-01-18T16:31:45.774Z,22.30
2023-01-18T16:34:24.748Z,22.33
2023-01-18T16:36:54.990Z,22.33
2023-01-18T16:39:24.697Z,22.31
2023-01-18T16:41:55.490Z,22.32
2023-01-18T16:44:24.542Z,22.36
2023-01-18T16:46:53.982Z,22.31
2023-01-18T16:49:22.616Z,22.33
2023-01-18T16:51:51.484Z,22.37
2023-01-18T16:54:21.458Z,22.32
2023-01-18T16:56:50.402Z,22.30
2023-01-18T16:59:21.889Z,22.30
2023-01-18T17:01:51.571Z,22.30
2023-01-18T17:04:20.352Z,22.30
2023-01-18T17:06:48.908Z,22.30
2023-01-18T17:09:24.189Z,22.28
2023-01-18T17:11:53.098Z,22.28
2023-01-18T17:14:22.175Z,22.27
2023-01-18T17:16:51.066Z,22.28
2023-01-18T17:19:21.685Z,22.31
2023-01-18T17:21:51.085Z,22.29
2023-01-18T17:24:22.196Z,22.30
2023-01-18T17:26:50.896Z,22.31
2023-01-18T17:29:21.477Z,22.28
2023-01-18T17:31:53.534Z,22.28
2023-01-18T17:34:28.241Z,22.28
2023-01-18T17:36:59.094Z,22.28
2023-01-18T17:39:43.555Z,22.32
2023-01-18T17:42:22.816Z,22.31
2023-01-18T17:45:03.860Z,22.31
2023-01-18T17:47:33.881Z,22.33
2023-01-18T17:50:08.702Z,22.33
2023-01-18T17:52:37.495Z,22.34
2023-01-18T17:55:09.195Z,22.33
2023-01-18T17:57:37.845Z,22.32
2023-01-18T18:00:08.589Z,22.32
2023-01-18T18:02:37.787Z,22.34
2023-01-18T18:05:07.570Z,22.34
2023-01-18T18:07:36.262Z,22.33
2023-01-18T18:10:07.471Z,22.33
2023-01-18T18:12:36.423Z,22.31
2023-01-18T18:15:06.266Z,22.32
2023-01-18T18:17:35.348Z,22.31
2023-01-18T18:20:04.402Z,22.30
2023-01-18T18:22:33.908Z,22.31
2023-01-18T18:25:02.759Z,22.30
2023-01-18T18:27:44.795Z,22.30
2023-01-18T18:30:14.738Z,22.30
2023-01-18T18:32:43.599Z,22.32
2023-01-18T18:35:24.502Z,22.32
2023-01-18T18:37:55.648Z,22.32
2023-01-18T18:40:24.510Z,22.35
2023-01-18T18:43:02.292Z,22.37
2023-01-18T18:45:32.798Z,22.36
2023-01-18T18:48:01.638Z,22.37
2023-01-18T18:50:30.845Z,22.33
2023-01-18T18:52:59.941Z,22.31
2023-01-18T18:55:28.958Z,22.30
2023-01-18T18:57:58.880Z,22.31
2023-01-18T19:00:28.691Z,22.31
2023-01-18T19:03:01.824Z,22.31
2023-01-18T19:05:31.140Z,22.30
2023-01-18T19:07:59.868Z,22.31
2023-01-18T19:10:30.621Z,22.31
2023-01-18T19:13:02.253Z,22.31
2023-01-18T19:15:31.089Z,22.30
2023-01-18T19:17:59.930Z,22.31
2023-01-18T19:20:28.738Z,22.30
2023-01-18T19:22:57.869Z,22.31
2023-01-18T19:25:27.070Z,22.30
2023-01-18T19:27:55.697Z,22.32
2023-01-18T19:30:25.824Z,22.31
2023-01-18T19:32:54.541Z,22.30
2023-01-18T19:35:23.180Z,22.27
2023-01-18T19:37:51.932Z,22.29
2023-01-18T19:40:21.066Z,22.29
2023-01-18T19:42:54.946Z,22.32
2023-01-18T19:45:28.856Z,22.31
2023-01-18T19:47:58.797Z,22.32
2023-01-18T19:50:28.249Z,22.31
2023-01-18T19:52:57.064Z,22.35
2023-01-18T19:55:26.025Z,22.37
2023-01-18T19:57:56.932Z,22.37
2023-01-18T20:00:26.936Z,22.35
2023-01-18T20:02:55.860Z,22.38
2023-01-18T20:05:24.460Z,22.37
2023-01-18T20:07:53.326Z,22.37
2023-01-18T20:10:22.141Z,22.37
2023-01-18T20:12:50.977Z,22.38
2023-01-18T20:15:21.312Z,22.39
2023-01-18T20:17:51.539Z,22.40
2023-01-18T20:20:31.422Z,22.39
2023-01-18T20:23:03.538Z,22.39
2023-01-18T20:25:33.206Z,22.37
2023-01-18T20:28:02.113Z,22.36
2023-01-18T20:30:30.881Z,22.34
2023-01-18T20:33:01.516Z,22.32
2023-01-18T20:35:30.487Z,22.30
2023-01-18T20:37:59.311Z,22.31
2023-01-18T20:40:27.972Z,22.30
2023-01-18T20:42:56.820Z,22.32
2023-01-18T20:45:25.500Z,22.30
2023-01-18T20:47:54.452Z,22.30
2023-01-18T20:50:24.590Z,22.29
2023-01-18T20:52:54.081Z,22.28
2023-01-18T20:55:22.828Z,22.30
2023-01-18T20:57:52.042Z,22.28
2023-01-18T21:00:21.479Z,22.28
2023-01-18T21:02:50.483Z,22.28
2023-01-18T21:05:19.441Z,22.28
2023-01-18T21:07:49.385Z,22.27
2023-01-18T21:10:18.747Z,22.28
2023-01-18T21:12:49.064Z,22.28
2023-01-18T21:15:17.962Z,22.28
2023-01-18T21:17:46.629Z,22.28
2023-01-18T21:20:15.604Z,22.28
2023-01-18T21:22:44.220Z,22.29
2023-01-18T21:25:15.562Z,22.30
2023-01-18T21:27:44.253Z,22.29
2023-01-18T21:30:15.594Z,22.30
2023-01-18T21:32:44.180Z,22.31
2023-01-18T21:35:13.123Z,22.31
2023-01-18T21:37:41.934Z,22.31
2023-01-18T21:40:13.741Z,22.31
2023-01-18T21:42:59.749Z,22.29
2023-01-18T21:45:46.195Z,22.32
2023-01-18T21:48:15.187Z,22.31
2023-01-18T21:51:01.149Z,22.31
2023-01-18T21:53:47.229Z,22.31
2023-01-18T21:56:17.298Z,22.31
2023-01-18T21:58:55.187Z,22.31
2023-01-18T22:01:25.717Z,22.33
2023-01-18T22:04:12.692Z,22.32
2023-01-18T22:06:41.618Z,22.31
2023-01-18T22:09:10.204Z,22.29
2023-01-18T22:11:40.274Z,22.32
2023-01-18T22:14:09.383Z,22.32
2023-01-18T22:16:38.102Z,22.30
2023-01-18T22:19:06.814Z,22.29
2023-01-18T22:21:35.767Z,22.28
2023-01-18T22:24:04.531Z,22.28
2023-01-18T22:26:36.064Z,22.29
2023-01-18T22:29:06.408Z,22.30
2023-01-18T22:31:34.982Z,22.30
2023-01-18T22:34:05.383Z,22.29
2023-01-18T22:36:34.267Z,22.28
2023-01-18T22:39:03.057Z,22.28
2023-01-18T22:41:31.813Z,22.29
2023-01-18T22:44:00.478Z,22.28
2023-01-18T22:46:30.602Z,22.28
2023-01-18T22:48:59.779Z,22.27
2023-01-18T22:51:28.403Z,22.28
2023-01-18T22:53:57.400Z,22.27
2023-01-18T22:56:26.524Z,22.28
2023-01-18T22:58:55.457Z,22.28
2023-01-18T23:01:26.054Z,22.25
2023-01-18T23:03:57.838Z,22.29
2023-01-18T23:06:28.014Z,22.31
2023-01-18T23:08:59.019Z,22.27
2023-01-18T23:11:28.274Z,22.27
2023-01-18T23:14:15.699Z,22.28
2023-01-18T23:17:01.854Z,22.27
2023-01-18T23:19:32.129Z,22.27
2023-01-18T23:22:06.970Z,22.27
2023-01-18T23:24:36.468Z,22.29
2023-01-18T23:27:05.537Z,22.28
2023-01-18T23:29:34.315Z,22.29
2023-01-18T23:32:02.932Z,22.29
2023-01-18T23:34:33.004Z,22.29
2023-01-18T23:37:01.555Z,22.29
2023-01-18T23:39:47.469Z,22.27
2023-01-18T23:42:33.765Z,22.28
2023-01-18T23:45:19.646Z,22.28
2023-01-18T23:48:05.772Z,22.27
2023-01-18T23:50:53.269Z,22.28
2023-01-18T23:53:39.543Z,22.28
2023-01-18T23:56:08.631Z,22.27
2023-01-18T23:58:39.374Z,22.27
